sensor_id;sensor_type;location;lat;lon;timestamp;pressure;altitude;pressure_sealevel;temperature;humidity
17764;BME280;22245;52.832;13.816;2022-09-03T00:02:01;101902.44;;;12.25;69.56
17764;BME280;22245;52.832;13.816;2022-09-03T00:05:32;101898.47;;;12.30;67.77
17764;BME280;22245;52.832;13.816;2022-09-03T00:09:02;101896.72;;;12.42;67.82
17764;BME280;22245;52.832;13.816;2022-09-03T00:12:28;101898.69;;;12.52;66.56
17764;BME280;22245;52.832;13.816;2022-09-03T00:15:54;101887.44;;;12.59;65.79
17764;BME280;22245;52.832;13.816;2022-09-03T00:19:21;101892.31;;;12.66;65.41
17764;BME280;22245;52.832;13.816;2022-09-03T00:22:47;101891.19;;;12.68;64.98
17764;BME280;22245;52.832;13.816;2022-09-03T00:26:21;101894.50;;;12.72;64.32
17764;BME280;22245;52.832;13.816;2022-09-03T00:29:49;101892.31;;;12.77;64.58
17764;BME280;22245;52.832;13.816;2022-09-03T00:33:17;101894.91;;;12.79;64.34
17764;BME280;22245;52.832;13.816;2022-09-03T00:36:42;101894.75;;;12.80;64.35
17764;BME280;22245;52.832;13.816;2022-09-03T00:40:19;101897.34;;;12.82;63.85
17764;BME280;22245;52.832;13.816;2022-09-03T00:43:57;101890.16;;;12.82;63.53
17764;BME280;22245;52.832;13.816;2022-09-03T00:47:28;101891.84;;;12.83;63.40
17764;BME280;22245;52.832;13.816;2022-09-03T00:51:05;101898.91;;;12.84;63.28
17764;BME280;22245;52.832;13.816;2022-09-03T00:54:38;101883.84;;;12.83;63.45
17764;BME280;22245;52.832;13.816;2022-09-03T00:58:23;101896.22;;;12.84;63.38
17764;BME280;22245;52.832;13.816;2022-09-03T01:01:57;101894.53;;;12.83;63.59
17764;BME280;22245;52.832;13.816;2022-09-03T01:09:22;101879.47;;;12.82;63.65
17764;BME280;22245;52.832;13.816;2022-09-03T01:12:51;101891.13;;;12.81;63.71
17764;BME280;22245;52.832;13.816;2022-09-03T01:16:21;101890.28;;;12.81;63.17
17764;BME280;22245;52.832;13.816;2022-09-03T01:20:08;101879.59;;;12.81;63.12
17764;BME280;22245;52.832;13.816;2022-09-03T01:23:46;101878.72;;;12.80;63.35
17764;BME280;22245;52.832;13.816;2022-09-03T01:27:25;101880.44;;;12.81;63.40
17764;BME280;22245;52.832;13.816;2022-09-03T01:30:59;101885.66;;;12.83;62.88
17764;BME280;22245;52.832;13.816;2022-09-03T01:34:34;101883.84;;;12.83;62.53
17764;BME280;22245;52.832;13.816;2022-09-03T01:38:10;101880.91;;;12.86;61.95
17764;BME280;22245;52.832;13.816;2022-09-03T01:41:45;101883.59;;;12.86;62.17
17764;BME280;22245;52.832;13.816;2022-09-03T01:45:34;101879.94;;;12.87;62.30
17764;BME280;22245;52.832;13.816;2022-09-03T01:49:18;101883.16;;;12.93;62.17
17764;BME280;22245;52.832;13.816;2022-09-03T01:52:45;101881.19;;;12.95;61.83
17764;BME280;22245;52.832;13.816;2022-09-03T01:56:21;101870.38;;;12.96;61.62
17764;BME280;22245;52.832;13.816;2022-09-03T01:59:51;101869.63;;;12.94;61.08
17764;BME280;22245;52.832;13.816;2022-09-03T02:03:18;101877.16;;;12.89;61.30
17764;BME280;22245;52.832;13.816;2022-09-03T02:06:42;101871.44;;;12.82;61.64
17764;BME280;22245;52.832;13.816;2022-09-03T02:10:12;101878.47;;;12.72;62.36
17764;BME280;22245;52.832;13.816;2022-09-03T02:13:37;101880.88;;;12.64;62.45
17764;BME280;22245;52.832;13.816;2022-09-03T02:17:00;101877.72;;;12.58;62.86
17764;BME280;22245;52.832;13.816;2022-09-03T02:20:25;101884.50;;;12.51;63.13
17764;BME280;22245;52.832;13.816;2022-09-03T02:23:49;101882.25;;;12.45;63.19
17764;BME280;22245;52.832;13.816;2022-09-03T02:27:12;101893.41;;;12.39;63.56
17764;BME280;22245;52.832;13.816;2022-09-03T02:30:34;101890.97;;;12.36;63.05
17764;BME280;22245;52.832;13.816;2022-09-03T02:33:58;101893.97;;;12.31;64.16
17764;BME280;22245;52.832;13.816;2022-09-03T02:37:21;101895.06;;;12.28;64.36
17764;BME280;22245;52.832;13.816;2022-09-03T02:40:44;101884.63;;;12.25;64.50
17764;BME280;22245;52.832;13.816;2022-09-03T02:44:11;101879.59;;;12.21;65.01
17764;BME280;22245;52.832;13.816;2022-09-03T02:47:35;101878.25;;;12.15;65.19
17764;BME280;22245;52.832;13.816;2022-09-03T02:50:58;101882.31;;;12.08;65.85
17764;BME280;22245;52.832;13.816;2022-09-03T02:54:20;101895.16;;;12.02;65.91
17764;BME280;22245;52.832;13.816;2022-09-03T02:57:44;101892.81;;;11.98;65.97
17764;BME280;22245;52.832;13.816;2022-09-03T03:01:06;101890.47;;;11.93;66.34
17764;BME280;22245;52.832;13.816;2022-09-03T03:04:28;101894.09;;;11.92;66.71
17764;BME280;22245;52.832;13.816;2022-09-03T03:07:51;101888.13;;;11.88;66.88
17764;BME280;22245;52.832;13.816;2022-09-03T03:11:18;101889.22;;;11.86;67.07
17764;BME280;22245;52.832;13.816;2022-09-03T03:14:42;101891.97;;;11.84;67.73
17764;BME280;22245;52.832;13.816;2022-09-03T03:18:05;101889.44;;;11.83;67.97
17764;BME280;22245;52.832;13.816;2022-09-03T03:21:27;101891.59;;;11.78;68.21
17764;BME280;22245;52.832;13.816;2022-09-03T03:24:50;101893.50;;;11.76;67.87
17764;BME280;22245;52.832;13.816;2022-09-03T03:28:12;101885.69;;;11.72;69.23
17764;BME280;22245;52.832;13.816;2022-09-03T03:31:36;101886.47;;;11.75;68.48
17764;BME280;22245;52.832;13.816;2022-09-03T03:34:58;101885.28;;;11.79;68.61
17764;BME280;22245;52.832;13.816;2022-09-03T03:38:20;101886.78;;;11.83;68.65
17764;BME280;22245;52.832;13.816;2022-09-03T03:41:42;101875.75;;;11.87;68.92
17764;BME280;22245;52.832;13.816;2022-09-03T03:45:05;101886.81;;;11.94;68.97
17764;BME280;22245;52.832;13.816;2022-09-03T03:48:29;101881.94;;;12.01;68.68
17764;BME280;22245;52.832;13.816;2022-09-03T03:51:51;101882.31;;;12.08;68.48
17764;BME280;22245;52.832;13.816;2022-09-03T03:55:13;101891.59;;;12.15;68.88
17764;BME280;22245;52.832;13.816;2022-09-03T03:58:35;101897.22;;;12.23;68.16
17764;BME280;22245;52.832;13.816;2022-09-03T04:01:58;101892.41;;;12.28;67.81
17764;BME280;22245;52.832;13.816;2022-09-03T04:05:21;101907.97;;;12.35;67.37
17764;BME280;22245;52.832;13.816;2022-09-03T04:08:45;101909.19;;;12.42;67.64
17764;BME280;22245;52.832;13.816;2022-09-03T04:12:08;101905.22;;;12.48;67.46
17764;BME280;22245;52.832;13.816;2022-09-03T04:15:30;101905.88;;;12.51;67.15
17764;BME280;22245;52.832;13.816;2022-09-03T04:18:54;101899.41;;;12.54;67.21
17764;BME280;22245;52.832;13.816;2022-09-03T04:22:17;101895.91;;;12.53;66.99
17764;BME280;22245;52.832;13.816;2022-09-03T04:25:40;101898.81;;;12.50;67.42
17764;BME280;22245;52.832;13.816;2022-09-03T04:29:04;101900.72;;;12.48;67.82
17764;BME280;22245;52.832;13.816;2022-09-03T04:32:26;101896.59;;;12.44;67.60
17764;BME280;22245;52.832;13.816;2022-09-03T04:36:08;101893.31;;;12.40;67.86
17764;BME280;22245;52.832;13.816;2022-09-03T04:39:31;101892.56;;;12.38;68.13
17764;BME280;22245;52.832;13.816;2022-09-03T04:42:56;101892.66;;;12.37;68.50
17764;BME280;22245;52.832;13.816;2022-09-03T04:46:20;101894.59;;;12.35;68.06
17764;BME280;22245;52.832;13.816;2022-09-03T04:49:42;101893.13;;;12.30;67.80
17764;BME280;22245;52.832;13.816;2022-09-03T04:53:05;101889.72;;;12.28;68.32
17764;BME280;22245;52.832;13.816;2022-09-03T04:56:30;101899.44;;;12.29;68.53
17764;BME280;22245;52.832;13.816;2022-09-03T04:59:52;101907.44;;;12.29;68.32
17764;BME280;22245;52.832;13.816;2022-09-03T05:03:14;101916.22;;;12.32;68.77
17764;BME280;22245;52.832;13.816;2022-09-03T05:06:37;101909.06;;;12.32;68.66
17764;BME280;22245;52.832;13.816;2022-09-03T05:09:59;101900.06;;;12.33;68.63
17764;BME280;22245;52.832;13.816;2022-09-03T05:13:23;101910.41;;;12.38;68.75
17764;BME280;22245;52.832;13.816;2022-09-03T05:16:45;101912.75;;;12.42;68.44
17764;BME280;22245;52.832;13.816;2022-09-03T05:20:12;101910.44;;;12.49;68.80
17764;BME280;22245;52.832;13.816;2022-09-03T05:23:35;101913.00;;;12.51;68.69
17764;BME280;22245;52.832;13.816;2022-09-03T05:26:57;101909.88;;;12.57;68.55
17764;BME280;22245;52.832;13.816;2022-09-03T05:30:20;101909.41;;;12.63;68.48
17764;BME280;22245;52.832;13.816;2022-09-03T05:33:44;101915.16;;;12.70;68.91
17764;BME280;22245;52.832;13.816;2022-09-03T05:37:06;101908.38;;;12.77;68.66
17764;BME280;22245;52.832;13.816;2022-09-03T05:40:28;101906.69;;;12.87;68.67
17764;BME280;22245;52.832;13.816;2022-09-03T05:43:52;101897.97;;;12.97;68.39
17764;BME280;22245;52.832;13.816;2022-09-03T05:47:16;101901.53;;;13.09;68.07
17764;BME280;22245;52.832;13.816;2022-09-03T05:50:38;101895.56;;;13.16;67.88
17764;BME280;22245;52.832;13.816;2022-09-03T05:54:00;101892.19;;;13.26;67.66
17764;BME280;22245;52.832;13.816;2022-09-03T05:57:23;101897.78;;;13.34;67.01
17764;BME280;22245;52.832;13.816;2022-09-03T06:00:45;101900.94;;;13.39;67.21
17764;BME280;22245;52.832;13.816;2022-09-03T06:04:10;101902.19;;;13.46;67.03
17764;BME280;22245;52.832;13.816;2022-09-03T06:07:33;101892.69;;;13.54;66.57
17764;BME280;22245;52.832;13.816;2022-09-03T06:10:56;101899.16;;;13.63;66.63
17764;BME280;22245;52.832;13.816;2022-09-03T06:14:19;101898.53;;;13.70;65.84
17764;BME280;22245;52.832;13.816;2022-09-03T06:17:41;101904.13;;;13.79;66.15
17764;BME280;22245;52.832;13.816;2022-09-03T06:21:06;101897.03;;;13.89;65.31
17764;BME280;22245;52.832;13.816;2022-09-03T06:24:28;101906.16;;;13.98;65.06
17764;BME280;22245;52.832;13.816;2022-09-03T06:27:52;101909.19;;;14.04;64.85
17764;BME280;22245;52.832;13.816;2022-09-03T06:31:15;101914.53;;;14.16;64.01
17764;BME280;22245;52.832;13.816;2022-09-03T06:34:37;101909.28;;;14.26;63.91
17764;BME280;22245;52.832;13.816;2022-09-03T06:38:01;101912.88;;;14.36;63.25
17764;BME280;22245;52.832;13.816;2022-09-03T06:41:25;101898.84;;;14.44;63.20
17764;BME280;22245;52.832;13.816;2022-09-03T06:44:47;101900.28;;;14.48;62.54
17764;BME280;22245;52.832;13.816;2022-09-03T06:48:10;101903.44;;;14.53;61.92
17764;BME280;22245;52.832;13.816;2022-09-03T06:51:32;101905.59;;;14.59;62.63
17764;BME280;22245;52.832;13.816;2022-09-03T06:54:56;101903.38;;;14.65;62.15
17764;BME280;22245;52.832;13.816;2022-09-03T06:58:18;101913.97;;;14.66;61.54
17764;BME280;22245;52.832;13.816;2022-09-03T07:01:42;101911.88;;;14.70;61.84
17764;BME280;22245;52.832;13.816;2022-09-03T07:05:06;101910.94;;;14.71;61.55
17764;BME280;22245;52.832;13.816;2022-09-03T07:08:28;101910.81;;;14.72;61.84
17764;BME280;22245;52.832;13.816;2022-09-03T07:11:54;101915.03;;;14.75;62.40
17764;BME280;22245;52.832;13.816;2022-09-03T07:15:15;101918.22;;;14.80;61.59
17764;BME280;22245;52.832;13.816;2022-09-03T07:18:38;101920.75;;;14.82;62.03
17764;BME280;22245;52.832;13.816;2022-09-03T07:22:00;101910.03;;;14.82;61.55
17764;BME280;22245;52.832;13.816;2022-09-03T07:25:23;101905.25;;;14.85;62.38
17764;BME280;22245;52.832;13.816;2022-09-03T07:28:47;101908.50;;;14.89;62.21
17764;BME280;22245;52.832;13.816;2022-09-03T07:32:09;101908.97;;;14.94;62.76
17764;BME280;22245;52.832;13.816;2022-09-03T07:35:35;101903.22;;;14.99;62.16
17764;BME280;22245;52.832;13.816;2022-09-03T07:38:58;101903.66;;;15.04;61.86
17764;BME280;22245;52.832;13.816;2022-09-03T07:42:19;101909.38;;;15.11;62.11
17764;BME280;22245;52.832;13.816;2022-09-03T07:45:49;101907.25;;;15.14;62.02
17764;BME280;22245;52.832;13.816;2022-09-03T07:49:11;101910.53;;;15.18;61.60
17764;BME280;22245;52.832;13.816;2022-09-03T07:52:33;101910.59;;;15.28;61.10
17764;BME280;22245;52.832;13.816;2022-09-03T07:56:00;101922.88;;;15.30;61.43
17764;BME280;22245;52.832;13.816;2022-09-03T07:59:22;101918.09;;;15.34;61.74
17764;BME280;22245;52.832;13.816;2022-09-03T08:02:45;101912.47;;;15.37;60.80
17764;BME280;22245;52.832;13.816;2022-09-03T08:06:09;101912.06;;;15.42;60.58
17764;BME280;22245;52.832;13.816;2022-09-03T08:09:31;101915.75;;;15.51;60.43
17764;BME280;22245;52.832;13.816;2022-09-03T08:12:53;101919.91;;;15.55;60.29
17764;BME280;22245;52.832;13.816;2022-09-03T08:16:16;101919.78;;;15.66;60.27
17764;BME280;22245;52.832;13.816;2022-09-03T08:19:40;101910.22;;;15.73;59.72
17764;BME280;22245;52.832;13.816;2022-09-03T08:23:03;101921.09;;;15.82;58.78
17764;BME280;22245;52.832;13.816;2022-09-03T08:26:25;101905.06;;;15.91;58.23
17764;BME280;22245;52.832;13.816;2022-09-03T08:29:47;101913.16;;;16.01;57.79
17764;BME280;22245;52.832;13.816;2022-09-03T08:33:09;101909.63;;;16.11;58.48
17764;BME280;22245;52.832;13.816;2022-09-03T08:36:34;101900.00;;;16.18;58.17
17764;BME280;22245;52.832;13.816;2022-09-03T08:39:56;101908.91;;;16.28;58.31
17764;BME280;22245;52.832;13.816;2022-09-03T08:43:18;101902.44;;;16.41;58.21
17764;BME280;22245;52.832;13.816;2022-09-03T08:46:48;101902.16;;;16.54;58.24
17764;BME280;22245;52.832;13.816;2022-09-03T08:50:16;101904.41;;;16.68;57.13
17764;BME280;22245;52.832;13.816;2022-09-03T08:53:45;101897.75;;;16.82;56.86
17764;BME280;22245;52.832;13.816;2022-09-03T08:57:08;101906.94;;;16.99;56.04
17764;BME280;22245;52.832;13.816;2022-09-03T09:00:39;101891.63;;;17.10;55.35
17764;BME280;22245;52.832;13.816;2022-09-03T09:04:10;101882.34;;;17.22;54.94
17764;BME280;22245;52.832;13.816;2022-09-03T09:07:43;101873.81;;;17.36;54.23
17764;BME280;22245;52.832;13.816;2022-09-03T09:11:23;101880.16;;;17.45;54.49
17764;BME280;22245;52.832;13.816;2022-09-03T09:14:54;101871.03;;;17.56;53.64
17764;BME280;22245;52.832;13.816;2022-09-03T09:18:23;101870.97;;;17.66;52.71
17764;BME280;22245;52.832;13.816;2022-09-03T09:21:53;101869.06;;;17.76;52.38
17764;BME280;22245;52.832;13.816;2022-09-03T09:25:19;101863.09;;;17.83;51.38
17764;BME280;22245;52.832;13.816;2022-09-03T09:28:45;101868.00;;;17.87;51.85
17764;BME280;22245;52.832;13.816;2022-09-03T09:32:11;101862.31;;;17.90;51.05
17764;BME280;22245;52.832;13.816;2022-09-03T09:35:37;101856.88;;;18.00;50.11
17764;BME280;22245;52.832;13.816;2022-09-03T09:39:07;101850.56;;;18.10;50.28
17764;BME280;22245;52.832;13.816;2022-09-03T09:42:32;101852.66;;;18.16;50.15
17764;BME280;22245;52.832;13.816;2022-09-03T09:46:05;101840.28;;;18.23;49.95
17764;BME280;22245;52.832;13.816;2022-09-03T09:49:30;101845.25;;;18.36;48.07
17764;BME280;22245;52.832;13.816;2022-09-03T09:53:00;101841.09;;;18.42;48.19
17764;BME280;22245;52.832;13.816;2022-09-03T09:56:26;101846.53;;;18.50;46.62
17764;BME280;22245;52.832;13.816;2022-09-03T09:59:49;101831.44;;;18.57;46.31
17764;BME280;22245;52.832;13.816;2022-09-03T10:03:12;101834.88;;;18.68;46.63
17764;BME280;22245;52.832;13.816;2022-09-03T10:06:35;101832.69;;;18.71;46.47
17764;BME280;22245;52.832;13.816;2022-09-03T10:10:19;101829.91;;;18.81;44.92
17764;BME280;22245;52.832;13.816;2022-09-03T10:13:43;101828.44;;;18.87;44.00
17764;BME280;22245;52.832;13.816;2022-09-03T10:17:13;101821.06;;;18.97;42.41
17764;BME280;22245;52.832;13.816;2022-09-03T10:20:48;101825.00;;;19.03;42.89
17764;BME280;22245;52.832;13.816;2022-09-03T10:24:47;101817.63;;;19.13;41.93
17764;BME280;22245;52.832;13.816;2022-09-03T10:28:12;101814.63;;;19.24;41.88
17764;BME280;22245;52.832;13.816;2022-09-03T10:31:41;101819.91;;;19.34;41.04
17764;BME280;22245;52.832;13.816;2022-09-03T10:35:09;101817.91;;;19.45;38.60
17764;BME280;22245;52.832;13.816;2022-09-03T10:38:35;101816.28;;;19.52;38.95
17764;BME280;22245;52.832;13.816;2022-09-03T10:42:06;101812.03;;;19.58;38.49
17764;BME280;22245;52.832;13.816;2022-09-03T10:45:38;101818.66;;;19.63;39.49
17764;BME280;22245;52.832;13.816;2022-09-03T10:49:26;101807.88;;;19.72;37.81
17764;BME280;22245;52.832;13.816;2022-09-03T10:53:05;101809.75;;;19.79;37.52
17764;BME280;22245;52.832;13.816;2022-09-03T10:56:33;101803.00;;;19.84;38.15
17764;BME280;22245;52.832;13.816;2022-09-03T11:00:04;101805.91;;;19.90;37.18
17764;BME280;22245;52.832;13.816;2022-09-03T11:03:42;101798.97;;;19.96;37.40
17764;BME280;22245;52.832;13.816;2022-09-03T11:07:07;101786.97;;;20.07;36.92
17764;BME280;22245;52.832;13.816;2022-09-03T11:10:31;101789.00;;;20.13;37.01
17764;BME280;22245;52.832;13.816;2022-09-03T11:13:59;101776.69;;;20.19;35.87
17764;BME280;22245;52.832;13.816;2022-09-03T11:17:27;101771.59;;;20.24;36.01
17764;BME280;22245;52.832;13.816;2022-09-03T11:20:55;101760.78;;;20.32;36.13
17764;BME280;22245;52.832;13.816;2022-09-03T11:24:25;101770.56;;;20.42;36.24
17764;BME280;22245;52.832;13.816;2022-09-03T11:27:55;101768.22;;;20.47;36.20
17764;BME280;22245;52.832;13.816;2022-09-03T11:31:28;101766.84;;;20.51;36.96
17764;BME280;22245;52.832;13.816;2022-09-03T11:34:53;101763.44;;;20.57;36.50
17764;BME280;22245;52.832;13.816;2022-09-03T11:38:20;101760.19;;;20.62;35.50
17764;BME280;22245;52.832;13.816;2022-09-03T11:41:56;101756.31;;;20.64;35.24
17764;BME280;22245;52.832;13.816;2022-09-03T11:45:34;101754.13;;;20.68;35.45
17764;BME280;22245;52.832;13.816;2022-09-03T11:49:09;101746.00;;;20.68;35.46
17764;BME280;22245;52.832;13.816;2022-09-03T11:52:31;101738.66;;;20.77;35.21
17764;BME280;22245;52.832;13.816;2022-09-03T11:56:00;101734.63;;;20.81;36.08
17764;BME280;22245;52.832;13.816;2022-09-03T11:59:34;101740.38;;;20.86;35.51
17764;BME280;22245;52.832;13.816;2022-09-03T12:03:01;101728.19;;;20.90;35.74
17764;BME280;22245;52.832;13.816;2022-09-03T12:06:48;101726.13;;;20.92;35.64
17764;BME280;22245;52.832;13.816;2022-09-03T12:10:38;101727.13;;;21.00;35.61
17764;BME280;22245;52.832;13.816;2022-09-03T12:14:07;101723.34;;;21.09;35.69
17764;BME280;22245;52.832;13.816;2022-09-03T12:17:40;101731.41;;;21.17;35.45
17764;BME280;22245;52.832;13.816;2022-09-03T12:21:10;101723.44;;;21.24;35.11
17764;BME280;22245;52.832;13.816;2022-09-03T12:24:33;101720.38;;;21.27;35.10
17764;BME280;22245;52.832;13.816;2022-09-03T12:28:00;101717.84;;;21.25;35.48
17764;BME280;22245;52.832;13.816;2022-09-03T12:31:25;101714.94;;;21.27;36.03
17764;BME280;22245;52.832;13.816;2022-09-03T12:34:49;101716.16;;;21.24;35.85
17764;BME280;22245;52.832;13.816;2022-09-03T12:38:12;101720.72;;;21.24;36.12
17764;BME280;22245;52.832;13.816;2022-09-03T12:41:53;101702.44;;;21.26;35.74
17764;BME280;22245;52.832;13.816;2022-09-03T12:45:20;101708.88;;;21.25;36.04
17764;BME280;22245;52.832;13.816;2022-09-03T12:48:51;101704.47;;;21.24;35.96
17764;BME280;22245;52.832;13.816;2022-09-03T12:52:36;101698.22;;;21.23;35.10
17764;BME280;22245;52.832;13.816;2022-09-03T12:56:01;101705.69;;;21.21;35.04
17764;BME280;22245;52.832;13.816;2022-09-03T12:59:26;101701.97;;;21.22;35.71
17764;BME280;22245;52.832;13.816;2022-09-03T13:02:55;101693.47;;;21.25;35.81
17764;BME280;22245;52.832;13.816;2022-09-03T13:06:22;101675.16;;;21.28;34.94
17764;BME280;22245;52.832;13.816;2022-09-03T13:09:45;101687.50;;;21.30;35.02
17764;BME280;22245;52.832;13.816;2022-09-03T13:13:18;101684.63;;;21.32;34.93
17764;BME280;22245;52.832;13.816;2022-09-03T13:17:05;101686.31;;;21.33;34.87
17764;BME280;22245;52.832;13.816;2022-09-03T13:20:34;101681.34;;;21.36;35.10
17764;BME280;22245;52.832;13.816;2022-09-03T13:24:08;101683.69;;;21.39;35.19
17764;BME280;22245;52.832;13.816;2022-09-03T13:27:42;101680.00;;;21.40;34.47
17764;BME280;22245;52.832;13.816;2022-09-03T13:31:10;101676.06;;;21.43;35.15
17764;BME280;22245;52.832;13.816;2022-09-03T13:34:45;101674.50;;;21.49;34.57
17764;BME280;22245;52.832;13.816;2022-09-03T13:38:22;101664.50;;;21.49;34.58
17764;BME280;22245;52.832;13.816;2022-09-03T13:41:50;101662.09;;;21.54;33.75
17764;BME280;22245;52.832;13.816;2022-09-03T13:45:25;101663.75;;;21.55;34.25
17764;BME280;22245;52.832;13.816;2022-09-03T13:48:50;101670.53;;;21.60;34.71
17764;BME280;22245;52.832;13.816;2022-09-03T13:52:39;101659.81;;;21.66;34.54
17764;BME280;22245;52.832;13.816;2022-09-03T13:56:12;101658.25;;;21.72;33.08
17764;BME280;22245;52.832;13.816;2022-09-03T13:59:44;101657.03;;;21.75;33.74
17764;BME280;22245;52.832;13.816;2022-09-03T14:03:15;101651.06;;;21.79;33.79
17764;BME280;22245;52.832;13.816;2022-09-03T14:06:41;101646.31;;;21.81;33.28
17764;BME280;22245;52.832;13.816;2022-09-03T14:10:18;101655.47;;;21.80;33.44
17764;BME280;22245;52.832;13.816;2022-09-03T14:13:51;101650.69;;;21.82;33.88
17764;BME280;22245;52.832;13.816;2022-09-03T14:17:29;101654.06;;;21.85;33.64
17764;BME280;22245;52.832;13.816;2022-09-03T14:20:55;101646.06;;;21.91;33.41
17764;BME280;22245;52.832;13.816;2022-09-03T14:24:22;101646.50;;;21.95;33.48
17764;BME280;22245;52.832;13.816;2022-09-03T14:27:46;101644.28;;;21.98;33.43
17764;BME280;22245;52.832;13.816;2022-09-03T14:31:14;101646.44;;;22.03;33.75
17764;BME280;22245;52.832;13.816;2022-09-03T14:34:59;101655.69;;;22.09;33.13
17764;BME280;22245;52.832;13.816;2022-09-03T14:42:46;101648.03;;;22.12;32.39
17764;BME280;22245;52.832;13.816;2022-09-03T14:46:26;101642.78;;;22.11;32.79
17764;BME280;22245;52.832;13.816;2022-09-03T14:50:02;101632.78;;;22.11;32.89
17764;BME280;22245;52.832;13.816;2022-09-03T14:53:56;101636.16;;;22.14;32.54
17764;BME280;22245;52.832;13.816;2022-09-03T14:57:34;101627.09;;;22.21;33.13
17764;BME280;22245;52.832;13.816;2022-09-03T15:01:09;101625.69;;;22.25;32.03
17764;BME280;22245;52.832;13.816;2022-09-03T15:04:45;101621.09;;;22.26;31.87
17764;BME280;22245;52.832;13.816;2022-09-03T15:08:17;101624.38;;;22.36;32.09
17764;BME280;22245;52.832;13.816;2022-09-03T15:11:48;101622.66;;;22.65;31.91
17764;BME280;22245;52.832;13.816;2022-09-03T15:15:17;101619.78;;;22.67;31.77
17764;BME280;22245;52.832;13.816;2022-09-03T15:18:54;101628.84;;;22.74;31.85
17764;BME280;22245;52.832;13.816;2022-09-03T15:22:40;101623.41;;;22.74;31.19
17764;BME280;22245;52.832;13.816;2022-09-03T15:26:23;101619.34;;;22.85;31.21
17764;BME280;22245;52.832;13.816;2022-09-03T15:29:57;101619.06;;;22.95;31.21
17764;BME280;22245;52.832;13.816;2022-09-03T15:33:29;101611.44;;;23.05;30.89
17764;BME280;22245;52.832;13.816;2022-09-03T15:36:57;101619.50;;;23.64;30.39
17764;BME280;22245;52.832;13.816;2022-09-03T15:40:28;101613.47;;;23.97;30.65
17764;BME280;22245;52.832;13.816;2022-09-03T15:43:57;101625.59;;;23.94;29.67
17764;BME280;22245;52.832;13.816;2022-09-03T15:47:35;101623.13;;;23.71;29.81
17764;BME280;22245;52.832;13.816;2022-09-03T15:51:16;101629.44;;;23.50;29.79
17764;BME280;22245;52.832;13.816;2022-09-03T15:54:47;101628.22;;;23.31;30.03
17764;BME280;22245;52.832;13.816;2022-09-03T15:58:20;101624.31;;;23.18;30.52
17764;BME280;22245;52.832;13.816;2022-09-03T16:01:50;101622.53;;;23.10;30.93
17764;BME280;22245;52.832;13.816;2022-09-03T16:05:17;101627.81;;;23.12;31.14
17764;BME280;22245;52.832;13.816;2022-09-03T16:08:43;101623.75;;;23.08;31.13
17764;BME280;22245;52.832;13.816;2022-09-03T16:12:18;101615.91;;;23.13;31.59
17764;BME280;22245;52.832;13.816;2022-09-03T16:15:48;101622.13;;;23.29;31.36
17764;BME280;22245;52.832;13.816;2022-09-03T16:19:15;101623.81;;;23.30;31.16
17764;BME280;22245;52.832;13.816;2022-09-03T16:22:46;101627.16;;;23.53;30.30
17764;BME280;22245;52.832;13.816;2022-09-03T16:26:13;101618.22;;;23.60;30.01
17764;BME280;22245;52.832;13.816;2022-09-03T16:29:38;101625.34;;;23.61;30.13
17764;BME280;22245;52.832;13.816;2022-09-03T16:33:07;101639.34;;;23.58;29.92
17764;BME280;22245;52.832;13.816;2022-09-03T16:36:40;101634.41;;;23.46;29.83
17764;BME280;22245;52.832;13.816;2022-09-03T16:40:13;101628.84;;;23.33;30.22
17764;BME280;22245;52.832;13.816;2022-09-03T16:43:56;101627.81;;;23.34;30.69
17764;BME280;22245;52.832;13.816;2022-09-03T16:47:34;101639.19;;;23.22;30.75
17764;BME280;22245;52.832;13.816;2022-09-03T16:51:09;101635.97;;;23.12;30.88
17764;BME280;22245;52.832;13.816;2022-09-03T16:54:45;101627.47;;;23.00;30.94
17764;BME280;22245;52.832;13.816;2022-09-03T16:58:20;101631.31;;;22.91;31.29
17764;BME280;22245;52.832;13.816;2022-09-03T17:01:55;101632.84;;;22.78;31.45
17764;BME280;22245;52.832;13.816;2022-09-03T17:05:48;101631.84;;;22.64;31.44
17764;BME280;22245;52.832;13.816;2022-09-03T17:09:23;101635.06;;;22.53;32.03
17764;BME280;22245;52.832;13.816;2022-09-03T17:12:54;101636.34;;;22.42;32.27
17764;BME280;22245;52.832;13.816;2022-09-03T17:16:30;101635.97;;;22.30;32.63
17764;BME280;22245;52.832;13.816;2022-09-03T17:20:00;101638.13;;;22.20;33.36
17764;BME280;22245;52.832;13.816;2022-09-03T17:31:31;101638.13;;;21.66;35.06
17764;BME280;22245;52.832;13.816;2022-09-03T17:35:08;101648.25;;;21.49;36.14
17764;BME280;22245;52.832;13.816;2022-09-03T17:38:48;101646.69;;;21.32;37.45
17764;BME280;22245;52.832;13.816;2022-09-03T17:42:15;101648.00;;;21.13;39.98
17764;BME280;22245;52.832;13.816;2022-09-03T17:45:45;101649.66;;;20.90;41.68
17764;BME280;22245;52.832;13.816;2022-09-03T17:49:14;101657.84;;;20.65;42.34
17764;BME280;22245;52.832;13.816;2022-09-03T17:52:44;101654.88;;;20.44;42.86
17764;BME280;22245;52.832;13.816;2022-09-03T17:56:11;101656.47;;;20.21;43.76
17764;BME280;22245;52.832;13.816;2022-09-03T17:59:45;101660.59;;;20.01;42.92
17764;BME280;22245;52.832;13.816;2022-09-03T18:03:15;101667.84;;;19.84;43.50
17764;BME280;22245;52.832;13.816;2022-09-03T18:06:55;101672.56;;;19.65;44.52
17764;BME280;22245;52.832;13.816;2022-09-03T18:10:26;101675.41;;;19.47;45.84
17764;BME280;22245;52.832;13.816;2022-09-03T18:13:55;101682.66;;;19.30;45.77